Time;durP1;ratioP1;P1;durP2;ratioP2;P2;SDS_P1;SDS_P2;PMS_P1;PMS_P2;Temp;Humidity;BMP_temperature;BMP_pressure;BME280_temperature;BME280_humidity;BME280_pressure;Samples;Min_cycle;Max_cycle;Signal;HPM_P1;HPM_P2
2022/03/09 00:01:26;;;;;;;25.57;15.07;;;;;;;2.34;84.37;102152.66;4999840;28;20308;-51
2022/03/09 00:03:52;;;;;;;19.70;16.40;;;;;;;2.32;85.24;102144.81;5001740;28;20233;-53
2022/03/09 00:06:20;;;;;;;21.73;15.33;;;;;;;2.31;85.31;102144.72;5001137;28;20252;-52
2022/03/09 00:08:46;;;;;;;22.67;16.97;;;;;;;2.32;84.85;102152.59;5002207;28;20335;-52
2022/03/09 00:11:12;;;;;;;28.47;16.17;;;;;;;2.28;84.81;102153.22;4996665;28;20340;-52
2022/03/09 00:13:39;;;;;;;23.07;16.87;;;;;;;2.22;85.57;102147.69;5006173;28;20260;-52
2022/03/09 00:16:05;;;;;;;26.43;17.90;;;;;;;2.34;84.98;102157.84;5007198;28;20259;-55
2022/03/09 00:18:32;;;;;;;24.67;15.10;;;;;;;2.21;85.47;102156.28;5007982;28;20729;-52
2022/03/09 00:20:58;;;;;;;21.80;15.90;;;;;;;2.23;86.12;102151.16;5002156;28;20228;-52
2022/03/09 00:23:26;;;;;;;27.60;18.73;;;;;;;2.15;86.68;102150.75;4998450;28;20321;-52
2022/03/09 00:25:52;;;;;;;27.30;18.73;;;;;;;2.05;86.65;102149.34;4998805;28;20729;-52
2022/03/09 00:28:18;;;;;;;28.37;19.47;;;;;;;2.07;87.52;102152.00;5006501;28;20283;-52
2022/03/09 00:30:45;;;;;;;31.00;21.43;;;;;;;2.04;87.99;102149.25;5004193;28;20268;-52
2022/03/09 00:33:11;;;;;;;42.00;25.80;;;;;;;2.06;87.41;102145.94;5000157;28;20252;-52
2022/03/09 00:35:38;;;;;;;50.43;27.80;;;;;;;1.96;87.78;102142.75;4996150;28;20289;-52
2022/03/09 00:38:05;;;;;;;45.83;27.20;;;;;;;1.88;88.04;102145.78;5005852;28;20249;-53
2022/03/09 00:40:33;;;;;;;44.03;25.27;;;;;;;1.90;88.62;102141.59;5001209;28;20240;-52
2022/03/09 00:42:59;;;;;;;38.30;24.30;;;;;;;1.82;88.47;102137.66;5005018;28;20260;-52
2022/03/09 00:45:25;;;;;;;38.97;25.60;;;;;;;1.74;88.23;102133.75;5006400;28;20333;-52
2022/03/09 00:47:52;;;;;;;90.10;47.37;;;;;;;1.73;88.16;102134.56;5006140;28;20901;-52
2022/03/09 00:50:18;;;;;;;99.30;48.63;;;;;;;1.72;88.14;102142.22;5005678;28;20648;-52
2022/03/09 00:52:47;;;;;;;65.53;40.53;;;;;;;1.70;87.57;102142.16;5006702;28;20294;-52
2022/03/09 00:55:13;;;;;;;43.23;26.57;;;;;;;1.73;88.17;102147.50;5005554;28;20240;-52
2022/03/09 00:57:41;;;;;;;30.23;20.50;;;;;;;1.69;88.59;102147.25;5007179;28;20630;-53
2022/03/09 01:00:08;;;;;;;25.20;16.43;;;;;;;1.64;88.64;102150.44;5001399;28;20799;-53
2022/03/09 01:02:40;;;;;;;22.70;15.70;;;;;;;1.57;89.14;102147.41;5006017;28;20268;-51
2022/03/09 01:05:07;;;;;;;22.50;14.70;;;;;;;1.50;nan;102146.16;5006754;28;20294;-53
2022/03/09 01:07:33;;;;;;;21.40;16.07;;;;;;;1.48;89.41;102152.09;5000806;28;20348;-52
2022/03/09 01:09:59;;;;;;;24.87;15.87;;;;;;;1.41;89.66;102156.88;5004573;28;20259;-52
2022/03/09 01:12:26;;;;;;;21.23;15.70;;;;;;;1.37;89.14;102144.56;5008529;28;20271;-52
2022/03/09 01:14:54;;;;;;;20.27;15.87;;;;;;;1.30;89.65;102152.78;5011920;28;20237;-53
2022/03/09 01:17:20;;;;;;;24.73;15.03;;;;;;;1.29;89.60;102145.78;5006746;28;20778;-52
2022/03/09 01:19:47;;;;;;;19.60;14.83;;;;;;;1.27;89.96;102147.41;5004726;28;20229;-52
2022/03/09 01:22:13;;;;;;;20.37;14.53;;;;;;;1.28;90.25;102141.44;5005629;28;20247;-52
2022/03/09 01:24:39;;;;;;;21.30;14.53;;;;;;;1.30;90.19;102145.03;4998160;28;20282;-52
2022/03/09 01:27:06;;;;;;;22.53;15.03;;;;;;;1.27;90.05;102147.41;5005417;28;20237;-56
2022/03/09 01:29:32;;;;;;;19.73;14.23;;;;;;;1.24;90.19;102146.34;5006880;28;20239;-52
2022/03/09 01:32:00;;;;;;;21.50;15.20;;;;;;;1.24;90.31;102142.06;5006005;28;20232;-52
2022/03/09 01:34:26;;;;;;;27.00;17.10;;;;;;;1.23;90.50;102145.47;5004489;28;20337;-52
2022/03/09 01:36:53;;;;;;;50.07;24.47;;;;;;;1.27;89.94;102142.25;5005546;28;20294;-52
2022/03/09 01:39:20;;;;;;;56.87;27.33;;;;;;;1.29;89.61;102145.78;5005121;28;20236;-52
2022/03/09 01:41:46;;;;;;;31.97;18.33;;;;;;;1.33;90.04;102146.88;5005001;28;20321;-51
2022/03/09 01:44:14;;;;;;;21.13;14.03;;;;;;;1.32;90.65;102134.75;5006287;28;20259;-52
2022/03/09 01:46:41;;;;;;;18.03;12.73;;;;;;;1.22;90.84;102141.06;5000865;28;20240;-52
2022/03/09 01:49:10;;;;;;;16.30;12.83;;;;;;;1.12;90.58;102130.97;5003998;28;20242;-53
2022/03/09 01:51:39;;;;;;;17.30;12.17;;;;;;;1.08;91.45;102126.41;4997929;28;20275;-52
2022/03/09 01:54:06;;;;;;;13.07;11.67;;;;;;;1.11;91.91;102121.44;5005497;28;20236;-52
2022/03/09 01:56:33;;;;;;;17.40;11.60;;;;;;;1.10;91.47;102128.31;5005512;28;20232;-52
2022/03/09 01:59:01;;;;;;;15.03;11.83;;;;;;;1.12;92.05;102120.63;5006137;28;20805;-52
2022/03/09 02:01:28;;;;;;;14.63;11.07;;;;;;;1.15;91.98;102124.28;5005087;28;20240;-52
2022/03/09 02:03:54;;;;;;;13.53;11.30;;;;;;;1.22;92.10;102122.97;5006830;28;20225;-52
2022/03/09 02:06:22;;;;;;;13.43;10.50;;;;;;;1.27;91.66;102121.56;5002631;28;20236;-52
2022/03/09 02:11:32;;;;;;;14.80;10.83;;;;;;;1.29;91.52;102125.09;4990837;28;20232;-52
2022/03/09 02:13:58;;;;;;;15.47;10.50;;;;;;;1.34;91.53;102123.69;5004265;28;20240;-51
2022/03/09 02:16:24;;;;;;;16.03;10.00;;;;;;;1.38;91.02;102117.88;5003691;28;20236;-52
2022/03/09 02:18:51;;;;;;;13.53;10.73;;;;;;;1.38;90.81;102119.59;5000602;28;20237;-52
2022/03/09 02:21:20;;;;;;;13.40;10.00;;;;;;;1.43;91.25;102124.22;4998689;28;20334;-52
2022/03/09 02:23:48;;;;;;;14.63;11.03;;;;;;;1.38;91.17;102117.88;5005567;28;20240;-52
2022/03/09 02:26:14;;;;;;;13.63;10.40;;;;;;;1.34;91.24;102121.09;5002414;28;20274;-52
2022/03/09 02:28:46;;;;;;;14.53;9.80;;;;;;;1.33;91.19;102124.47;4994798;28;20237;-52
2022/03/09 02:31:13;;;;;;;16.03;11.07;;;;;;;1.35;90.25;102124.59;5002991;28;20228;-52
2022/03/09 02:33:44;;;;;;;14.07;11.90;;;;;;;1.25;90.68;102128.31;4997150;28;20260;-53
2022/03/09 02:36:10;;;;;;;15.37;11.77;;;;;;;1.22;91.00;102129.81;5004818;28;20259;-52
2022/03/09 02:38:37;;;;;;;14.97;12.77;;;;;;;1.18;91.50;102133.94;5003338;28;20323;-52
2022/03/09 02:41:04;;;;;;;16.60;11.47;;;;;;;1.23;91.87;102127.34;5004759;28;20315;-52
2022/03/09 02:43:30;;;;;;;15.20;11.93;;;;;;;1.24;91.92;102126.53;5000854;28;20267;-52
2022/03/09 02:45:57;;;;;;;16.57;13.10;;;;;;;1.19;92.75;102133.13;5004695;28;20328;-52
2022/03/09 02:48:23;;;;;;;20.50;13.73;;;;;;;1.11;92.92;102129.19;5004040;28;20266;-52
2022/03/09 02:50:49;;;;;;;17.53;12.50;;;;;;;1.09;93.23;102128.19;5004529;28;20263;-52
2022/03/09 02:53:16;;;;;;;18.23;14.10;;;;;;;1.11;92.87;102135.25;5000782;28;20239;-52
2022/03/09 02:55:42;;;;;;;20.43;15.00;;;;;;;1.04;93.15;102127.03;5003800;28;20268;-51
2022/03/09 02:58:10;;;;;;;17.40;13.77;;;;;;;1.01;93.26;102134.63;5002857;28;20788;-52
2022/03/09 03:00:36;;;;;;;15.83;13.47;;;;;;;0.95;94.12;102138.63;5004592;28;20974;-53
2022/03/09 03:03:02;;;;;;;20.00;13.57;;;;;;;0.86;94.46;102137.16;4999197;28;20225;-52
2022/03/09 03:05:29;;;;;;;17.20;14.10;;;;;;;0.78;94.60;102149.63;5005388;28;20244;-51
2022/03/09 03:07:55;;;;;;;17.57;13.63;;;;;;;0.66;94.44;102144.59;5003689;28;20815;-52
2022/03/09 03:10:21;;;;;;;15.50;13.40;;;;;;;0.64;94.83;102140.16;5003476;28;20236;-52
2022/03/09 03:12:48;;;;;;;17.37;12.83;;;;;;;0.56;94.98;102141.34;5000860;28;20664;-53
2022/03/09 03:15:15;;;;;;;17.57;12.10;;;;;;;0.51;95.25;102143.66;5004140;28;20247;-52
2022/03/09 03:17:42;;;;;;;14.23;12.70;;;;;;;0.50;95.45;102147.03;5003678;28;20271;-53
2022/03/09 03:20:09;;;;;;;16.67;11.83;;;;;;;0.47;95.83;102145.16;5003730;28;20240;-52
2022/03/09 03:22:35;;;;;;;15.90;12.70;;;;;;;0.44;95.87;102141.47;5004119;28;20259;-52
2022/03/09 03:25:02;;;;;;;14.53;11.67;;;;;;;0.44;96.12;102142.38;5004941;28;20240;-52
2022/03/09 03:27:28;;;;;;;12.97;11.23;;;;;;;0.49;95.63;102137.47;4998216;28;20232;-51
2022/03/09 03:29:54;;;;;;;21.57;12.37;;;;;;;0.50;95.41;102136.69;5001548;28;20236;-52
2022/03/09 03:32:22;;;;;;;17.07;11.87;;;;;;;0.44;95.58;102129.44;4997677;28;20261;-52
2022/03/09 03:34:48;;;;;;;14.03;11.33;;;;;;;0.42;95.93;102138.81;5009187;28;20655;-52
2022/03/09 03:37:14;;;;;;;14.97;10.77;;;;;;;0.43;96.35;102138.00;5007828;28;20228;-52
2022/03/09 03:39:41;;;;;;;15.33;11.63;;;;;;;0.46;96.39;102138.19;5010716;28;20305;-52
2022/03/09 03:42:07;;;;;;;17.27;12.03;;;;;;;0.52;96.10;102144.53;5012649;28;20618;-51
2022/03/09 03:44:34;;;;;;;16.13;12.40;;;;;;;0.53;95.74;102142.06;5009062;28;20321;-54
2022/03/09 03:47:00;;;;;;;17.60;12.23;;;;;;;0.55;95.68;102140.44;5006727;28;20259;-53
2022/03/09 03:49:28;;;;;;;15.87;11.43;;;;;;;0.55;95.53;102147.31;5005855;28;20269;-53
2022/03/09 03:51:54;;;;;;;14.77;10.87;;;;;;;0.53;95.58;102149.81;5007198;28;20231;-53
2022/03/09 03:54:20;;;;;;;15.80;10.77;;;;;;;0.56;95.32;102151.66;5007001;28;20717;-53
2022/03/09 03:56:47;;;;;;;13.77;11.10;;;;;;;0.61;95.33;102158.03;5006688;28;20241;-50
2022/03/09 03:59:13;;;;;;;15.87;11.43;;;;;;;0.62;95.61;102160.69;5006099;28;20346;-51
2022/03/09 04:01:40;;;;;;;12.23;10.17;;;;;;;0.61;95.67;102158.94;5007446;28;20227;-52
2022/03/09 04:04:06;;;;;;;18.10;12.03;;;;;;;0.63;95.68;102159.00;5005906;28;20294;-51
2022/03/09 04:06:34;;;;;;;14.90;11.80;;;;;;;0.63;96.00;102156.41;5007484;28;20256;-51
2022/03/09 04:09:00;;;;;;;16.20;11.53;;;;;;;0.65;96.28;102157.44;5002448;28;20330;-51
2022/03/09 04:11:27;;;;;;;14.50;11.03;;;;;;;0.68;96.28;102167.97;5006113;28;20319;-53
2022/03/09 04:13:53;;;;;;;12.97;11.73;;;;;;;0.70;95.59;102163.75;5006134;28;20318;-53
2022/03/09 04:16:19;;;;;;;15.83;12.50;;;;;;;0.65;95.49;102165.19;5006728;28;20287;-53
2022/03/09 04:18:46;;;;;;;16.27;11.63;;;;;;;0.63;95.78;102166.75;5003743;28;20598;-51
2022/03/09 04:21:12;;;;;;;15.60;11.13;;;;;;;0.61;96.22;102168.38;5005414;28;20260;-53
2022/03/09 04:23:40;;;;;;;13.53;11.37;;;;;;;0.61;95.95;102165.78;5004590;28;20267;-52
2022/03/09 04:26:06;;;;;;;16.63;12.27;;;;;;;0.64;96.49;102164.28;5001597;28;20282;-51
2022/03/09 04:28:33;;;;;;;15.43;12.10;;;;;;;0.67;96.20;102168.75;5001392;28;20236;-53
2022/03/09 04:30:59;;;;;;;15.47;12.03;;;;;;;0.71;96.14;102165.56;5006921;28;20259;-53
2022/03/09 04:33:25;;;;;;;16.23;12.70;;;;;;;0.70;96.05;102166.34;5002563;28;20268;-53
2022/03/09 04:35:52;;;;;;;23.40;13.10;;;;;;;0.67;96.13;102176.53;5005880;28;20240;-53
2022/03/09 04:38:18;;;;;;;17.07;12.10;;;;;;;0.62;96.16;102175.31;5005994;28;20233;-53
2022/03/09 04:40:46;;;;;;;18.57;12.80;;;;;;;0.61;96.36;102170.97;5006718;28;20271;-51
2022/03/09 04:43:12;;;;;;;14.07;12.10;;;;;;;0.63;95.86;102164.19;5006127;28;20739;-51
2022/03/09 04:45:38;;;;;;;14.03;11.67;;;;;;;0.58;95.56;102166.47;5006529;28;20688;-51
2022/03/09 04:48:05;;;;;;;13.73;11.23;;;;;;;0.55;95.81;102168.88;5005455;28;20236;-54
2022/03/09 04:50:31;;;;;;;14.97;11.40;;;;;;;0.49;95.96;102176.22;5006752;28;20272;-53
2022/03/09 04:52:58;;;;;;;15.03;12.67;;;;;;;0.44;96.02;102175.94;4999883;28;20233;-53
2022/03/09 04:55:24;;;;;;;13.30;11.03;;;;;;;0.41;96.69;102168.00;5005871;28;20798;-53
2022/03/09 04:57:52;;;;;;;13.70;11.03;;;;;;;0.42;97.00;102167.22;5005995;28;20264;-52
2022/03/09 05:00:18;;;;;;;15.70;11.83;;;;;;;0.49;96.34;102168.47;5005254;28;20239;-53
2022/03/09 05:02:45;;;;;;;15.63;11.03;;;;;;;0.46;96.19;102161.44;5005327;28;20713;-53
2022/03/09 05:05:12;;;;;;;13.57;11.87;;;;;;;0.36;96.91;102159.09;5006382;28;20295;-53
2022/03/09 05:07:39;;;;;;;16.23;11.47;;;;;;;0.31;97.17;102157.00;5006202;28;20274;-53
2022/03/09 05:10:06;;;;;;;14.23;11.07;;;;;;;0.26;97.42;102154.13;5004286;28;20239;-53
2022/03/09 05:12:32;;;;;;;16.27;11.57;;;;;;;0.29;97.67;102150.84;5006017;28;20236;-52
2022/03/09 05:15:00;;;;;;;16.83;12.53;;;;;;;0.29;97.89;102159.50;5006151;28;20260;-53
2022/03/09 05:17:26;;;;;;;18.30;13.13;;;;;;;0.33;97.83;102152.84;4995741;28;20257;-53
2022/03/09 05:19:53;;;;;;;16.07;12.57;;;;;;;0.36;97.86;102153.91;5003108;28;20298;-53
2022/03/09 05:22:19;;;;;;;17.07;12.03;;;;;;;0.39;97.89;102159.28;5005981;28;20839;-53
2022/03/09 05:24:45;;;;;;;16.90;11.07;;;;;;;0.40;97.75;102157.59;5002195;28;20286;-52
2022/03/09 05:27:12;;;;;;;15.37;11.53;;;;;;;0.45;97.44;102153.59;5004008;28;20267;-53
2022/03/09 05:29:38;;;;;;;16.23;12.10;;;;;;;0.46;97.35;102160.56;5005421;28;20257;-53
2022/03/09 05:32:07;;;;;;;18.77;11.70;;;;;;;0.44;97.13;102168.19;5004137;28;20660;-52
2022/03/09 05:34:33;;;;;;;18.57;13.03;;;;;;;0.40;97.18;102158.47;5005866;28;20232;-53
2022/03/09 05:37:00;;;;;;;18.87;12.93;;;;;;;0.40;97.33;102166.22;5005896;28;20788;-53
2022/03/09 05:39:26;;;;;;;15.47;11.83;;;;;;;0.38;97.67;102172.97;5003319;28;20287;-53
2022/03/09 05:41:52;;;;;;;13.27;11.43;;;;;;;0.40;97.52;102171.41;5005077;28;20251;-52
2022/03/09 05:44:19;;;;;;;16.60;12.23;;;;;;;0.40;97.45;102181.72;5003404;28;20393;-52
2022/03/09 05:46:45;;;;;;;15.33;11.67;;;;;;;0.39;97.71;102179.94;5005217;28;20246;-53
2022/03/09 05:49:13;;;;;;;15.77;11.10;;;;;;;0.47;97.75;102183.91;5003301;28;20248;-52
2022/03/09 05:51:39;;;;;;;20.47;13.10;;;;;;;0.41;98.13;102174.88;4997630;28;20268;-53
2022/03/09 05:54:05;;;;;;;16.83;12.37;;;;;;;0.31;98.19;102181.13;5005658;28;20309;-53
2022/03/09 05:56:32;;;;;;;13.57;12.17;;;;;;;0.27;98.57;102184.31;5006051;28;20248;-52
2022/03/09 05:58:58;;;;;;;18.67;11.97;;;;;;;0.28;98.72;102192.97;5003198;28;20716;-52
2022/03/09 06:01:25;;;;;;;18.57;14.37;;;;;;;0.27;98.94;102193.75;5001890;28;20314;-53
2022/03/09 06:03:51;;;;;;;27.67;17.90;;;;;;;0.29;98.87;102202.53;5010116;28;20315;-53
2022/03/09 06:06:19;;;;;;;21.13;15.07;;;;;;;0.30;99.18;102205.19;5010311;28;20713;-51
2022/03/09 06:08:45;;;;;;;17.07;13.43;;;;;;;0.33;99.14;102207.97;5008543;28;20241;-53
2022/03/09 06:11:11;;;;;;;20.67;14.80;;;;;;;0.41;99.37;102216.19;5008945;28;20232;-53
2022/03/09 06:13:38;;;;;;;22.03;17.97;;;;;;;0.44;98.95;102214.72;5008388;28;20235;-53
2022/03/09 06:16:05;;;;;;;26.47;20.30;;;;;;;0.44;98.94;102214.72;5004910;28;20231;-53
2022/03/09 06:18:31;;;;;;;27.00;18.47;;;;;;;0.47;98.70;102219.19;5004575;28;20239;-51
2022/03/09 06:20:57;;;;;;;21.60;15.33;;;;;;;0.46;98.87;102218.28;5005123;28;20301;-53
2022/03/09 06:23:25;;;;;;;20.13;14.97;;;;;;;0.45;99.03;102220.75;5005039;28;20236;-53
2022/03/09 06:25:51;;;;;;;19.00;14.13;;;;;;;0.47;98.94;102216.59;5004373;28;20232;-52
2022/03/09 06:28:18;;;;;;;23.77;16.37;;;;;;;0.56;99.25;102224.03;5002060;28;20245;-52
2022/03/09 06:30:44;;;;;;;27.03;17.20;;;;;;;0.59;99.24;102217.38;5001430;28;20321;-53
2022/03/09 06:33:10;;;;;;;20.77;16.07;;;;;;;0.60;98.72;102215.69;5002476;28;20310;-53
2022/03/09 06:35:37;;;;;;;25.07;16.03;;;;;;;0.62;99.48;102220.16;4991602;28;20237;-53
2022/03/09 06:38:03;;;;;;;24.60;17.87;;;;;;;0.70;99.23;102218.03;5003825;28;20798;-53
2022/03/09 06:40:31;;;;;;;24.97;16.10;;;;;;;0.79;99.27;102222.91;5003771;28;20891;-53
2022/03/09 06:42:59;;;;;;;21.77;16.33;;;;;;;0.85;98.84;102228.47;5004588;28;20315;-53
2022/03/09 06:45:25;;;;;;;23.57;16.50;;;;;;;0.87;99.20;102232.03;4998025;28;20240;-51
2022/03/09 06:47:52;;;;;;;23.13;16.90;;;;;;;0.92;98.36;102231.53;5002121;28;20704;-53
2022/03/09 06:50:18;;;;;;;24.27;16.33;;;;;;;0.99;98.60;102227.63;5001778;28;20241;-51
2022/03/09 06:52:45;;;;;;;22.20;16.13;;;;;;;1.10;98.32;102231.75;5003026;28;20229;-52
2022/03/09 06:55:12;;;;;;;26.10;15.57;;;;;;;1.20;97.46;102233.22;5004399;28;20757;-52
2022/03/09 06:57:40;;;;;;;25.87;14.73;;;;;;;1.30;97.01;102232.06;5006030;28;20246;-52
2022/03/09 07:00:10;;;;;;;26.97;16.17;;;;;;;1.42;95.90;102233.72;5004421;28;20269;-51
2022/03/09 07:02:37;;;;;;;25.47;15.87;;;;;;;1.48;95.28;102225.44;4997855;28;20236;-52
2022/03/09 07:05:04;;;;;;;22.33;15.40;;;;;;;1.55;95.20;102221.53;5004790;28;20229;-52
2022/03/09 07:07:30;;;;;;;17.03;14.47;;;;;;;1.65;94.96;102235.09;5004432;28;20271;-53
2022/03/09 07:10:00;;;;;;;21.37;15.07;;;;;;;1.75;94.43;102236.50;5006507;28;20292;-54
2022/03/09 07:12:27;;;;;;;17.83;14.27;;;;;;;1.91;92.65;102228.84;5004330;28;20244;-53
2022/03/09 07:14:54;;;;;;;16.53;14.00;;;;;;;2.07;90.94;102232.31;5005645;28;20236;-51
2022/03/09 07:17:21;;;;;;;18.03;13.57;;;;;;;2.19;89.57;102230.44;5006828;28;20270;-52
2022/03/09 07:19:48;;;;;;;21.20;15.53;;;;;;;2.42;89.07;102229.13;5009595;28;20763;-52
2022/03/09 07:22:15;;;;;;;20.53;16.37;;;;;;;2.52;88.97;102230.53;5008708;28;20237;-52
2022/03/09 07:24:41;;;;;;;20.13;14.37;;;;;;;2.53;88.18;102232.34;5005025;28;20236;-53
2022/03/09 07:27:07;;;;;;;22.63;13.97;;;;;;;2.57;88.55;102229.09;5008920;28;20240;-52
2022/03/09 07:29:34;;;;;;;16.50;14.40;;;;;;;2.64;87.75;102233.81;5008801;28;20745;-53
2022/03/09 07:32:01;;;;;;;16.60;13.57;;;;;;;2.70;87.09;102231.53;5009742;28;20243;-52
2022/03/09 07:34:29;;;;;;;19.23;13.27;;;;;;;2.79;86.37;102234.66;5007642;28;20342;-52
2022/03/09 07:36:57;;;;;;;19.37;13.37;;;;;;;2.94;84.84;102237.19;5009368;28;20229;-51
2022/03/09 07:39:26;;;;;;;13.90;11.97;;;;;;;3.08;83.99;102243.13;5006236;28;20255;-52
2022/03/09 07:41:52;;;;;;;18.23;12.90;;;;;;;3.20;83.30;102241.19;5008899;28;20236;-52
2022/03/09 07:44:19;;;;;;;14.47;11.83;;;;;;;3.43;82.22;102246.69;5008102;28;20243;-52
2022/03/09 07:46:45;;;;;;;16.17;12.47;;;;;;;3.52;82.76;102249.78;4994058;28;20279;-51
2022/03/09 07:49:13;;;;;;;13.70;11.40;;;;;;;3.60;81.87;102243.25;5007638;28;20322;-52
2022/03/09 07:51:39;;;;;;;14.77;12.03;;;;;;;3.70;81.13;102247.22;5009124;28;20283;-57
2022/03/09 07:54:06;;;;;;;16.13;12.57;;;;;;;3.88;80.37;102255.06;5008098;28;20232;-53
2022/03/09 07:56:34;;;;;;;14.30;11.47;;;;;;;4.01;79.68;102249.69;5003389;28;20237;-52
2022/03/09 07:59:01;;;;;;;16.33;12.93;;;;;;;4.09;80.05;102245.75;5007938;28;20614;-52
2022/03/09 08:01:27;;;;;;;15.60;11.77;;;;;;;4.18;79.93;102248.81;5007853;28;20693;-52
2022/03/09 08:03:54;;;;;;;13.83;11.17;;;;;;;4.44;78.35;102243.97;5008022;28;20276;-53
2022/03/09 08:06:22;;;;;;;15.03;11.50;;;;;;;4.58;76.73;102250.72;5007751;28;20721;-52
2022/03/09 08:08:48;;;;;;;12.50;8.70;;;;;;;4.71;75.86;102249.63;5006170;28;20262;-52
2022/03/09 08:11:15;;;;;;;11.40;9.37;;;;;;;4.83;75.55;102249.28;5006120;28;20256;-52
2022/03/09 08:13:41;;;;;;;11.47;9.63;;;;;;;5.08;74.19;102244.38;5009405;28;20240;-52
2022/03/09 08:16:08;;;;;;;11.63;8.50;;;;;;;5.13;73.88;102245.50;5001446;28;20237;-51
2022/03/09 08:18:34;;;;;;;12.30;9.83;;;;;;;5.36;73.32;102245.63;5000660;28;20222;-52
2022/03/09 08:21:01;;;;;;;12.70;9.97;;;;;;;5.51;72.80;102243.72;5008183;28;20299;-51
2022/03/09 08:23:28;;;;;;;11.30;9.07;;;;;;;5.83;71.03;102239.03;5007369;28;20253;-53
2022/03/09 08:25:55;;;;;;;10.37;7.70;;;;;;;5.98;70.37;102237.97;5006775;28;20360;-52
2022/03/09 08:28:21;;;;;;;8.00;7.20;;;;;;;6.32;68.09;102248.88;5005870;28;20763;-53
2022/03/09 08:30:48;;;;;;;10.77;6.93;;;;;;;6.60;65.44;102246.56;5008105;28;20237;-53
2022/03/09 08:33:15;;;;;;;10.43;6.83;;;;;;;6.69;64.26;102240.81;5010650;28;20280;-53
2022/03/09 08:35:41;;;;;;;10.13;6.80;;;;;;;6.81;63.83;102240.38;5010142;28;20256;-54
2022/03/09 08:38:08;;;;;;;8.87;7.00;;;;;;;6.92;63.16;102244.31;5020108;28;20268;-52
2022/03/09 08:40:35;;;;;;;9.57;6.10;;;;;;;7.01;62.74;102244.66;5009067;28;20751;-52
2022/03/09 08:43:02;;;;;;;8.67;6.20;;;;;;;7.12;62.06;102250.28;5008798;28;20229;-52
2022/03/09 08:45:28;;;;;;;12.90;7.17;;;;;;;7.16;61.55;102250.47;5007248;28;20233;-52
2022/03/09 08:47:54;;;;;;;10.17;6.80;;;;;;;7.27;60.87;102250.00;5005572;28;20253;-53
2022/03/09 08:50:21;;;;;;;7.27;5.80;;;;;;;7.29;60.84;102248.31;5006909;28;20233;-52
2022/03/09 08:52:47;;;;;;;7.47;5.10;;;;;;;7.33;60.61;102255.41;5007305;28;20276;-52
2022/03/09 08:55:13;;;;;;;6.77;5.90;;;;;;;7.36;60.66;102248.56;5005869;28;20229;-55
2022/03/09 08:57:41;;;;;;;7.83;6.00;;;;;;;7.34;60.65;102249.38;5005837;28;20241;-54
2022/03/09 09:00:08;;;;;;;9.03;6.40;;;;;;;7.50;60.83;102245.56;5005934;28;20264;-52
2022/03/09 09:02:34;;;;;;;12.27;7.67;;;;;;;7.67;59.81;102248.81;5007038;28;20264;-52
2022/03/09 09:05:00;;;;;;;8.37;5.73;;;;;;;7.89;57.41;102243.47;5005167;28;20484;-53
2022/03/09 09:07:27;;;;;;;7.03;5.70;;;;;;;8.07;56.98;102243.19;5003345;28;20299;-51
2022/03/09 09:09:53;;;;;;;11.07;7.80;;;;;;;8.29;56.52;102242.19;5008337;28;20261;-53
2022/03/09 09:12:19;;;;;;;9.00;6.70;;;;;;;8.38;56.81;102246.84;5001789;28;20256;-54
2022/03/09 09:14:47;;;;;;;8.43;6.90;;;;;;;8.55;56.66;102251.78;5001118;28;20937;-51
2022/03/09 09:17:14;;;;;;;8.60;7.17;;;;;;;8.81;55.52;102256.97;5003373;28;20225;-53
2022/03/09 09:19:40;;;;;;;10.20;7.07;;;;;;;8.82;56.11;102250.88;5006420;28;20853;-51
2022/03/09 09:22:07;;;;;;;7.97;6.47;;;;;;;9.09;56.14;102256.06;5004272;28;20245;-51
2022/03/09 09:24:33;;;;;;;8.63;7.33;;;;;;;9.05;54.58;102257.69;5006148;28;20287;-52
2022/03/09 09:26:59;;;;;;;8.10;6.33;;;;;;;9.30;54.35;102247.91;5000636;28;20714;-54
2022/03/09 09:29:26;;;;;;;8.85;7.00;;;;;;;9.53;53.93;102248.56;4999109;28;20502;-53
2022/03/09 09:31:54;;;;;;;9.50;6.73;;;;;;;9.75;52.83;102243.06;5002427;28;20282;-53
2022/03/09 09:34:20;;;;;;;6.43;5.60;;;;;;;9.90;51.93;102239.97;5006303;28;20237;-53
2022/03/09 09:36:47;;;;;;;7.50;5.53;;;;;;;10.02;51.79;102249.88;5004080;28;20706;-53
2022/03/09 09:39:14;;;;;;;6.03;5.23;;;;;;;10.09;50.95;102250.94;5000770;28;20621;-52
2022/03/09 09:41:42;;;;;;;8.30;5.20;;;;;;;10.15;50.49;102253.72;5005256;28;20252;-53
2022/03/09 09:44:09;;;;;;;11.17;5.83;;;;;;;10.02;51.58;102250.75;5006706;28;20233;-52
2022/03/09 09:46:39;;;;;;;6.87;5.40;;;;;;;10.00;51.13;102247.22;5006442;28;20300;-51
2022/03/09 09:49:07;;;;;;;6.90;5.63;;;;;;;10.26;51.26;102252.28;5006318;28;20248;-54
2022/03/09 09:51:34;;;;;;;6.07;5.47;;;;;;;10.36;49.81;102242.91;5005064;28;20804;-52
2022/03/09 09:54:00;;;;;;;6.00;5.07;;;;;;;10.54;48.82;102247.69;5006553;28;20233;-52
2022/03/09 09:56:27;;;;;;;6.60;5.10;;;;;;;10.56;48.70;102245.97;5004301;28;20225;-54
2022/03/09 09:58:53;;;;;;;9.30;5.17;;;;;;;10.64;47.87;102242.69;4996100;28;20265;-51
2022/03/09 10:01:19;;;;;;;9.80;5.63;;;;;;;10.72;48.37;102241.13;5002321;28;20253;-52
2022/03/09 10:03:46;;;;;;;7.27;3.50;;;;;;;10.79;46.05;102249.13;5004591;28;20229;-52
2022/03/09 10:06:13;;;;;;;4.40;4.00;;;;;;;10.82;45.11;102247.47;5002304;28;20249;-54
2022/03/09 10:08:40;;;;;;;6.23;5.10;;;;;;;10.66;45.03;102234.81;5005547;28;20233;-55
2022/03/09 10:11:06;;;;;;;7.83;5.53;;;;;;;10.42;46.18;102243.91;5005056;28;20233;-52
2022/03/09 10:13:35;;;;;;;7.73;5.30;;;;;;;10.43;46.48;102237.81;5004043;28;20784;-52
2022/03/09 10:16:10;;;;;;;6.73;5.10;;;;;;;10.44;46.99;102233.44;5004440;28;20240;-54
2022/03/09 10:18:37;;;;;;;7.90;5.23;;;;;;;10.40;46.65;102237.75;5004601;28;20229;-53
2022/03/09 10:21:10;;;;;;;8.67;4.67;;;;;;;10.29;47.07;102236.59;5002121;28;20233;-52
2022/03/09 10:23:56;;;;;;;8.33;5.30;;;;;;;10.26;47.21;102239.16;5002650;28;20784;-52
2022/03/09 10:26:24;;;;;;;6.83;4.80;;;;;;;10.35;46.79;102243.72;5004728;28;20232;-51
2022/03/09 10:28:58;;;;;;;9.77;4.93;;;;;;;10.39;46.05;102237.69;5010035;28;20251;-54
2022/03/09 10:31:36;;;;;;;11.17;6.07;;;;;;;10.14;46.79;102238.78;5008324;28;20236;-53
2022/03/09 10:34:07;;;;;;;10.33;5.77;;;;;;;10.17;47.07;102239.75;5004343;28;20284;-53
2022/03/09 10:36:33;;;;;;;9.53;6.43;;;;;;;9.84;46.30;102238.91;5005505;28;20233;-53
2022/03/09 10:39:14;;;;;;;10.30;6.87;;;;;;;9.97;45.78;102236.66;5008461;28;20878;-54
2022/03/09 10:41:40;;;;;;;10.23;7.23;;;;;;;10.22;45.63;102232.91;5008191;28;20595;-53
2022/03/09 10:44:07;;;;;;;11.47;7.23;;;;;;;10.56;44.22;102238.97;5011274;28;20251;-53
2022/03/09 10:46:42;;;;;;;14.93;7.83;;;;;;;10.58;45.01;102231.16;5010584;28;20767;-52
2022/03/09 10:49:08;;;;;;;10.53;6.47;;;;;;;10.49;44.61;102232.72;5013981;28;20616;-53
2022/03/09 10:51:36;;;;;;;11.40;7.37;;;;;;;10.29;44.51;102233.97;5009908;28;20233;-52
2022/03/09 10:54:04;;;;;;;9.60;6.63;;;;;;;10.34;44.87;102227.09;5008309;28;20260;-52
2022/03/09 10:56:32;;;;;;;9.73;7.90;;;;;;;10.33;44.11;102235.81;5005872;28;20418;-54
2022/03/09 10:59:09;;;;;;;11.18;7.57;;;;;;;10.60;44.84;102232.06;5005803;28;20425;-53
2022/03/09 11:01:35;;;;;;;12.77;7.67;;;;;;;10.87;43.50;102230.06;5008049;28;20256;-53
2022/03/09 11:04:10;;;;;;;10.77;6.80;;;;;;;10.88;43.31;102225.69;5004818;28;21158;-53
2022/03/09 11:06:37;;;;;;;10.63;6.47;;;;;;;10.93;44.07;102214.41;5000621;28;20228;-52
2022/03/09 11:09:03;;;;;;;12.53;7.13;;;;;;;11.01;43.46;102216.31;5003057;28;20241;-53
2022/03/09 11:11:31;;;;;;;11.07;6.20;;;;;;;10.89;43.89;102216.97;5002659;28;20269;-55
2022/03/09 11:13:59;;;;;;;8.97;6.50;;;;;;;10.77;44.25;102212.31;5003538;28;20268;-51
2022/03/09 11:16:25;;;;;;;10.03;6.03;;;;;;;10.93;44.42;102211.78;5004322;28;20624;-50
2022/03/09 11:18:54;;;;;;;10.05;6.60;;;;;;;10.98;43.29;102212.75;4996473;28;20326;-51
2022/03/09 11:21:21;;;;;;;8.90;6.07;;;;;;;11.11;43.13;102213.91;5003428;28;20921;-52